Time;durP1;ratioP1;P1;durP2;ratioP2;P2;SDS_P1;SDS_P2;PMS_P1;PMS_P2;Temp;Humidity;BMP_temperature;BMP_pressure;BME280_temperature;BME280_humidity;BME280_pressure;Samples;Min_cycle;Max_cycle;Signal;HPM_P1;HPM_P2
2023/03/01 00:01:16;;;;;;;31.60;13.60;;;;;;;-145.69;100.00;52537.47;5116556;28;20204;-85
2023/03/01 00:03:44;;;;;;;29.47;13.40;;;;;;;-145.69;100.00;52567.16;5118847;28;20205;-86
2023/03/01 00:06:10;;;;;;;26.80;11.97;;;;;;;-145.69;100.00;52586.97;5119850;28;20209;-86
2023/03/01 00:08:37;;;;;;;32.33;12.43;;;;;;;-145.69;100.00;52583.00;5118562;28;20193;-86
2023/03/01 00:11:07;;;;;;;28.13;12.03;;;;;;;-145.69;100.00;52571.13;5117664;28;20207;-86
2023/03/01 00:13:35;;;;;;;31.43;11.87;;;;;;;-145.69;100.00;52575.09;5118156;28;20202;-86
2023/03/01 00:16:03;;;;;;;29.60;12.67;;;;;;;-145.69;100.00;52612.72;5118619;28;20221;-86
2023/03/01 00:18:29;;;;;;;30.90;13.60;;;;;;;-145.69;100.00;52590.94;5118283;28;20200;-86
2023/03/01 00:20:56;;;;;;;37.53;13.57;;;;;;;-145.69;100.00;52620.66;5119146;28;20204;-86
2023/03/01 00:23:23;;;;;;;35.50;13.10;;;;;;;-145.69;100.00;52561.22;5118491;28;20202;-86
2023/03/01 00:25:51;;;;;;;30.00;12.60;;;;;;;-145.69;100.00;52559.25;5118504;28;20198;-86
2023/03/01 00:28:19;;;;;;;29.60;12.70;;;;;;;-145.69;100.00;52596.88;5118198;28;20193;-86
2023/03/01 00:30:46;;;;;;;33.47;13.33;;;;;;;-145.69;100.00;52628.56;5118672;28;20280;-86
2023/03/01 00:33:12;;;;;;;31.30;12.80;;;;;;;-145.69;100.00;52594.91;5118899;28;20206;-85
2023/03/01 00:35:39;;;;;;;38.97;14.00;;;;;;;-145.69;100.00;52606.78;5119294;28;20221;-85
2023/03/01 00:38:06;;;;;;;33.47;13.40;;;;;;;-145.69;100.00;52571.13;5118450;28;20197;-86
2023/03/01 00:40:35;;;;;;;33.63;14.43;;;;;;;-145.69;100.00;52590.94;5117676;28;20236;-86
2023/03/01 00:43:03;;;;;;;36.33;14.10;;;;;;;-145.69;100.00;52547.38;5117579;28;20212;-86
2023/03/01 00:45:31;;;;;;;33.50;13.27;;;;;;;-145.69;100.00;52612.72;5117048;28;20204;-86
2023/03/01 00:47:58;;;;;;;28.97;12.33;;;;;;;-145.69;100.00;52586.97;5117180;28;20197;-86
2023/03/01 00:50:25;;;;;;;35.30;12.87;;;;;;;-145.69;100.00;52571.13;5117227;28;20201;-87
2023/03/01 00:52:54;;;;;;;32.40;13.67;;;;;;;-145.69;100.00;52606.78;5117269;28;20206;-86
2023/03/01 00:55:20;;;;;;;36.50;13.17;;;;;;;-145.69;100.00;52551.31;5116775;28;20264;-86
2023/03/01 00:57:47;;;;;;;35.87;14.73;;;;;;;-145.69;100.00;52606.78;5116636;28;20655;-86
2023/03/01 01:00:14;;;;;;;38.57;14.33;;;;;;;-145.69;100.00;52563.22;5116645;28;20209;-87
2023/03/01 01:02:41;;;;;;;36.40;15.20;;;;;;;-145.69;100.00;52592.91;5116489;28;20197;-86
2023/03/01 01:05:08;;;;;;;37.43;15.57;;;;;;;-145.69;100.00;52606.78;5116478;28;20663;-86
2023/03/01 01:07:35;;;;;;;35.63;14.67;;;;;;;-145.69;100.00;52561.22;5116602;28;20280;-86
2023/03/01 01:10:02;;;;;;;38.43;16.60;;;;;;;-145.69;100.00;52575.09;5117126;28;20205;-86
2023/03/01 01:12:29;;;;;;;32.07;13.80;;;;;;;-145.69;100.00;52571.13;5116513;28;20205;-86
2023/03/01 01:14:55;;;;;;;36.63;15.03;;;;;;;-145.69;100.00;52590.94;5116413;28;20229;-86
2023/03/01 01:17:22;;;;;;;40.40;13.97;;;;;;;-145.69;100.00;52610.75;5116598;28;20198;-86
2023/03/01 01:19:50;;;;;;;35.30;14.97;;;;;;;-145.69;100.00;52545.38;5116295;28;20201;-86
2023/03/01 01:22:16;;;;;;;32.77;14.23;;;;;;;-145.69;100.00;52614.72;5116283;28;20198;-86
2023/03/01 01:24:43;;;;;;;31.70;13.40;;;;;;;-145.69;100.00;52579.06;5116460;28;20216;-86
2023/03/01 01:27:09;;;;;;;26.00;11.10;;;;;;;-145.69;100.00;52610.75;5117138;28;20205;-86
2023/03/01 01:29:37;;;;;;;26.27;12.90;;;;;;;-145.69;100.00;52606.78;5116960;28;20201;-86
2023/03/01 01:32:04;;;;;;;28.23;13.70;;;;;;;-145.69;100.00;52581.03;5116797;28;20202;-86
2023/03/01 01:34:30;;;;;;;37.43;14.60;;;;;;;-145.69;100.00;52610.75;5116330;28;20198;-86
2023/03/01 01:37:02;;;;;;;31.00;12.73;;;;;;;-145.69;100.00;52563.22;5116526;28;20194;-84
2023/03/01 01:39:29;;;;;;;37.43;14.53;;;;;;;-145.69;100.00;52567.16;5116318;28;20284;-87
2023/03/01 01:41:55;;;;;;;37.23;14.27;;;;;;;-145.69;100.00;52598.84;5115769;28;20233;-86
2023/03/01 01:44:24;;;;;;;30.67;13.57;;;;;;;-145.69;100.00;52590.94;5116012;28;20655;-86
2023/03/01 01:46:54;;;;;;;40.80;14.97;;;;;;;-145.69;100.00;52588.97;5115780;28;20289;-86
2023/03/01 01:49:32;;;;;;;38.20;13.93;;;;;;;-145.69;100.00;52579.06;5116045;28;20197;-86
2023/03/01 01:52:05;;;;;;;35.53;14.23;;;;;;;-145.69;100.00;52573.13;5115967;28;20198;-86
2023/03/01 01:54:39;;;;;;;34.13;13.80;;;;;;;-145.69;100.00;52551.31;5116397;28;20204;-86
2023/03/01 01:57:10;;;;;;;35.90;15.20;;;;;;;-145.69;100.00;52555.28;5116732;28;20205;-86
2023/03/01 01:59:38;;;;;;;36.07;15.00;;;;;;;-145.69;100.00;52559.25;5117495;28;20206;-86
2023/03/01 02:02:05;;;;;;;37.03;14.73;;;;;;;-145.69;100.00;52571.13;5116682;28;20201;-86
2023/03/01 02:04:33;;;;;;;36.53;14.83;;;;;;;-145.69;100.00;52569.16;5115465;28;20220;-86
2023/03/01 02:07:06;;;;;;;32.60;15.53;;;;;;;-145.69;100.00;52535.47;5115568;28;20216;-85
2023/03/01 02:09:33;;;;;;;32.00;14.60;;;;;;;-145.69;100.00;52585.00;5115379;28;20204;-85
2023/03/01 02:12:00;;;;;;;37.10;14.80;;;;;;;-145.69;100.00;52590.94;5115331;28;20655;-85
2023/03/01 02:14:27;;;;;;;38.20;15.13;;;;;;;-145.69;100.00;52610.75;5115374;28;20208;-85
2023/03/01 02:16:54;;;;;;;32.53;14.27;;;;;;;-145.69;100.00;52604.81;5115052;28;20201;-85
2023/03/01 02:19:30;;;;;;;39.67;15.73;;;;;;;-145.69;100.00;52551.31;5115024;28;20201;-85
2023/03/01 02:22:06;;;;;;;38.13;15.50;;;;;;;-145.69;100.00;52588.97;5115358;28;20209;-85
2023/03/01 02:24:41;;;;;;;33.77;14.50;;;;;;;-145.69;100.00;52614.72;5114458;28;20249;-84
2023/03/01 02:27:10;;;;;;;34.27;15.57;;;;;;;-145.69;100.00;52588.97;5115271;28;20203;-85
2023/03/01 02:29:38;;;;;;;31.43;13.73;;;;;;;-145.69;100.00;52604.81;5115146;28;20220;-85
2023/03/01 02:32:05;;;;;;;37.57;15.67;;;;;;;-145.69;100.00;52585.00;5115173;28;20219;-85
2023/03/01 02:34:33;;;;;;;36.97;15.53;;;;;;;-145.69;100.00;52581.03;5114852;28;20197;-85
2023/03/01 02:37:04;;;;;;;39.87;16.60;;;;;;;-145.69;100.00;52567.16;5115105;28;20205;-86
2023/03/01 02:39:41;;;;;;;42.87;16.10;;;;;;;-145.69;100.00;52553.31;5115473;28;20200;-85
2023/03/01 02:42:11;;;;;;;32.17;14.93;;;;;;;-145.69;100.00;52559.25;5114753;28;20663;-86
2023/03/01 02:44:40;;;;;;;34.60;15.90;;;;;;;-145.69;100.00;52594.91;5115512;28;20200;-86
2023/03/01 02:47:06;;;;;;;34.83;14.97;;;;;;;-145.69;100.00;52555.28;5115189;28;20200;-85
2023/03/01 02:49:35;;;;;;;38.07;14.73;;;;;;;-145.69;100.00;52567.16;5115442;28;20228;-86
2023/03/01 02:52:29;;;;;;;33.33;14.77;;;;;;;-145.69;100.00;52555.28;5115562;28;20208;-85
2023/03/01 02:55:01;;;;;;;35.60;15.13;;;;;;;-145.69;100.00;52586.97;5115576;28;20274;-86
2023/03/01 02:57:30;;;;;;;33.43;14.30;;;;;;;-145.69;100.00;52531.53;5113759;28;20190;-86
2023/03/01 03:00:06;;;;;;;37.97;16.10;;;;;;;-145.69;100.00;52594.91;5115120;28;20193;-86
2023/03/01 03:02:39;;;;;;;35.73;15.10;;;;;;;-145.69;100.00;52585.00;5115072;28;20197;-86
2023/03/01 03:05:09;;;;;;;35.57;15.87;;;;;;;-145.69;100.00;52581.03;5114602;28;20205;-86
2023/03/01 03:07:36;;;;;;;37.43;15.47;;;;;;;-145.69;100.00;52549.34;5114569;28;20237;-86
2023/03/01 03:10:04;;;;;;;35.87;15.87;;;;;;;-145.69;100.00;52543.41;5114798;28;20201;-86
2023/03/01 03:12:30;;;;;;;33.77;14.97;;;;;;;-145.69;100.00;52590.94;5114667;28;20293;-85
2023/03/01 03:14:58;;;;;;;42.53;16.27;;;;;;;-145.69;100.00;52585.00;5114592;28;20208;-86
2023/03/01 03:17:25;;;;;;;36.50;15.63;;;;;;;-145.69;100.00;52575.09;5114221;28;20193;-85
2023/03/01 03:19:51;;;;;;;38.10;16.17;;;;;;;-145.69;100.00;52585.00;5114465;28;20216;-86
2023/03/01 03:22:18;;;;;;;39.27;16.93;;;;;;;-145.69;100.00;52594.91;5114489;28;20220;-86
2023/03/01 03:24:44;;;;;;;36.73;16.13;;;;;;;-145.69;100.00;52608.75;5114436;28;20197;-85
2023/03/01 03:27:11;;;;;;;37.70;16.50;;;;;;;-145.69;100.00;52606.78;5114325;28;20205;-84
2023/03/01 03:29:37;;;;;;;35.67;15.90;;;;;;;-145.69;100.00;52594.91;5114837;28;20205;-86
2023/03/01 03:32:05;;;;;;;34.73;15.97;;;;;;;-145.69;100.00;52626.59;5114451;28;20194;-85
2023/03/01 03:34:32;;;;;;;44.30;17.00;;;;;;;-145.69;100.00;52610.75;5115569;28;20204;-86
2023/03/01 03:36:59;;;;;;;37.43;16.23;;;;;;;-145.69;100.00;52586.97;5119714;28;20225;-86
2023/03/01 03:39:26;;;;;;;41.10;16.17;;;;;;;-145.69;100.00;52575.09;5118462;28;20209;-86
2023/03/01 03:41:52;;;;;;;39.80;16.03;;;;;;;-145.69;100.00;52586.97;5118062;28;20229;-86
2023/03/01 03:44:19;;;;;;;44.63;16.93;;;;;;;-145.69;100.00;52583.00;5118125;28;20193;-86
2023/03/01 03:46:45;;;;;;;41.60;16.83;;;;;;;-145.69;100.00;52602.81;5118000;28;20212;-86
2023/03/01 03:49:13;;;;;;;38.27;17.27;;;;;;;-145.69;100.00;52575.09;5118222;28;20197;-86
2023/03/01 03:51:40;;;;;;;38.40;16.80;;;;;;;-145.69;100.00;52557.28;5118325;28;20201;-86
2023/03/01 03:54:06;;;;;;;38.90;16.77;;;;;;;-145.69;100.00;52612.72;5117719;28;20202;-86
2023/03/01 03:56:32;;;;;;;38.77;16.90;;;;;;;-145.69;100.00;52588.97;5117959;28;20233;-86
2023/03/01 03:58:59;;;;;;;42.53;17.53;;;;;;;-145.69;100.00;52581.03;5117888;28;20201;-86
2023/03/01 04:01:26;;;;;;;42.97;17.13;;;;;;;-145.69;100.00;52594.91;5117978;28;20201;-86
2023/03/01 04:03:54;;;;;;;39.43;16.67;;;;;;;-145.69;100.00;52602.81;5117594;28;20242;-85
2023/03/01 04:06:22;;;;;;;43.53;17.60;;;;;;;-145.69;100.00;52594.91;5117505;28;20198;-86
2023/03/01 04:08:50;;;;;;;37.43;16.17;;;;;;;-145.69;100.00;52571.13;5117968;28;20250;-86
2023/03/01 04:11:29;;;;;;;42.20;17.70;;;;;;;-145.69;100.00;52567.16;5117754;28;20193;-86
2023/03/01 04:13:57;;;;;;;38.40;16.53;;;;;;;-145.69;100.00;52588.97;5117837;28;20555;-86
2023/03/01 04:16:25;;;;;;;38.07;16.60;;;;;;;-145.69;100.00;52598.84;5117227;28;20232;-86
2023/03/01 04:18:53;;;;;;;41.00;17.47;;;;;;;-145.69;100.00;52559.25;5117371;28;20197;-86
2023/03/01 04:21:20;;;;;;;39.83;17.20;;;;;;;-145.69;100.00;52585.00;5117076;28;20209;-86
2023/03/01 04:23:47;;;;;;;41.97;18.33;;;;;;;-145.69;100.00;52590.94;5117077;28;20232;-86
2023/03/01 04:26:14;;;;;;;45.63;18.50;;;;;;;-145.69;100.00;52598.84;5117646;28;20205;-86
2023/03/01 04:28:44;;;;;;;43.10;17.00;;;;;;;-145.69;100.00;52604.81;5117451;28;20201;-86
2023/03/01 04:31:17;;;;;;;41.00;18.30;;;;;;;-145.69;100.00;52602.81;5117494;28;20193;-86
2023/03/01 04:33:45;;;;;;;44.10;18.13;;;;;;;-145.69;100.00;52583.00;5117444;28;20193;-86
2023/03/01 04:36:14;;;;;;;41.20;17.33;;;;;;;-145.69;100.00;52583.00;5117197;28;20221;-86
2023/03/01 04:38:41;;;;;;;45.53;19.07;;;;;;;-145.69;100.00;52590.94;5117269;28;20205;-86
2023/03/01 04:41:11;;;;;;;44.97;18.90;;;;;;;-145.69;100.00;52596.88;5116757;28;20252;-86
2023/03/01 04:43:38;;;;;;;48.63;19.47;;;;;;;-145.69;100.00;52606.78;5116952;28;20235;-86
2023/03/01 04:46:08;;;;;;;47.67;18.73;;;;;;;-145.69;100.00;52579.06;5116254;28;20228;-86
2023/03/01 04:48:35;;;;;;;38.00;17.60;;;;;;;-145.69;100.00;52596.88;5116968;28;20202;-86
2023/03/01 04:51:02;;;;;;;45.40;18.33;;;;;;;-145.69;100.00;52606.78;5116796;28;20197;-86
2023/03/01 04:53:29;;;;;;;41.90;18.63;;;;;;;-145.69;100.00;52590.94;5117018;28;20204;-86
2023/03/01 04:55:55;;;;;;;41.87;17.90;;;;;;;-145.69;100.00;52577.06;5116743;28;20766;-86
2023/03/01 04:58:23;;;;;;;42.27;19.20;;;;;;;-145.69;100.00;52618.66;5116459;28;20678;-85
2023/03/01 05:00:50;;;;;;;46.93;18.80;;;;;;;-145.69;100.00;52594.91;5098415;28;20237;-86
2023/03/01 05:03:18;;;;;;;43.83;18.53;;;;;;;-145.69;100.00;52583.00;5116792;28;20201;-85
2023/03/01 05:05:46;;;;;;;42.57;18.83;;;;;;;-145.69;100.00;52579.06;5116318;28;20201;-85
2023/03/01 05:08:17;;;;;;;47.80;19.63;;;;;;;-145.69;100.00;52575.09;5116739;28;20564;-84
2023/03/01 05:10:45;;;;;;;48.93;18.07;;;;;;;-145.69;100.00;52569.16;5116843;28;20654;-85
2023/03/01 05:13:14;;;;;;;45.67;17.83;;;;;;;-145.69;100.00;52577.06;5098489;28;20285;-86
2023/03/01 05:15:42;;;;;;;45.90;18.47;;;;;;;-145.69;100.00;52592.91;5096163;28;20220;-85
2023/03/01 05:18:11;;;;;;;42.97;18.53;;;;;;;-145.69;100.00;52577.06;5096237;28;20305;-86
2023/03/01 05:20:38;;;;;;;46.67;17.97;;;;;;;-145.69;100.00;52583.00;5096136;28;20208;-86
2023/03/01 05:23:06;;;;;;;44.00;18.57;;;;;;;-145.69;100.00;52571.13;5095921;28;20198;-86
2023/03/01 05:25:32;;;;;;;44.87;18.30;;;;;;;-145.69;100.00;52586.97;5095687;28;20198;-86
2023/03/01 05:27:59;;;;;;;47.30;18.63;;;;;;;-145.69;100.00;52598.84;5096015;28;20292;-85
2023/03/01 05:30:26;;;;;;;42.60;18.47;;;;;;;-145.69;100.00;52594.91;5116130;28;20205;-85
2023/03/01 05:32:55;;;;;;;42.03;18.57;;;;;;;-145.69;100.00;52585.00;5115892;28;20197;-86
2023/03/01 05:35:22;;;;;;;41.90;18.33;;;;;;;-145.69;100.00;52575.09;5115844;28;20201;-86
2023/03/01 05:37:50;;;;;;;46.70;18.80;;;;;;;-145.69;100.00;52596.88;5115631;28;20236;-85
2023/03/01 05:40:18;;;;;;;42.77;18.43;;;;;;;-145.69;100.00;52598.84;5115595;28;20237;-86
2023/03/01 05:42:46;;;;;;;36.70;17.07;;;;;;;-145.69;100.00;52626.59;5115211;28;20670;-86
2023/03/01 05:45:13;;;;;;;42.37;18.30;;;;;;;-145.69;100.00;52583.00;5112965;28;20197;-86
2023/03/01 05:47:43;;;;;;;44.37;18.43;;;;;;;-145.69;100.00;52577.06;5116732;28;20205;-86
2023/03/01 05:50:14;;;;;;;47.47;18.37;;;;;;;-145.69;100.00;52579.06;5116756;28;20201;-86
2023/03/01 05:52:40;;;;;;;46.43;18.97;;;;;;;-145.69;100.00;52588.97;5116001;28;20216;-86
2023/03/01 05:55:07;;;;;;;43.23;19.03;;;;;;;-145.69;100.00;52602.81;5115780;28;20201;-85
2023/03/01 05:57:34;;;;;;;45.27;19.33;;;;;;;-145.69;100.00;52592.91;5115514;28;20217;-86
2023/03/01 06:00:00;;;;;;;42.87;17.73;;;;;;;-145.69;100.00;52573.13;5114729;28;20222;-86
2023/03/01 06:02:29;;;;;;;41.00;18.73;;;;;;;-145.69;100.00;52545.38;5116884;28;20197;-86
2023/03/01 06:04:55;;;;;;;48.93;20.20;;;;;;;-145.69;100.00;52585.00;5116484;28;20674;-85
2023/03/01 06:07:23;;;;;;;71.87;25.50;;;;;;;-145.69;100.00;52596.88;5115838;28;20197;-86
2023/03/01 06:09:49;;;;;;;57.73;20.97;;;;;;;-145.69;100.00;52592.91;5115725;28;20256;-86
2023/03/01 06:12:16;;;;;;;45.80;18.73;;;;;;;-145.69;100.00;52598.84;5115244;28;20201;-85
2023/03/01 06:14:42;;;;;;;49.30;20.27;;;;;;;-145.69;100.00;52561.22;5115450;28;20200;-86
2023/03/01 06:17:09;;;;;;;56.17;22.03;;;;;;;-145.69;100.00;52600.84;5115136;28;20225;-85
2023/03/01 06:19:35;;;;;;;49.40;20.47;;;;;;;-145.69;100.00;52590.94;5115149;28;20208;-82
2023/03/01 06:22:02;;;;;;;51.10;19.90;;;;;;;-145.69;100.00;52606.78;5115517;28;20197;-86
2023/03/01 06:24:30;;;;;;;41.87;18.67;;;;;;;-145.69;100.00;52583.00;5115328;28;20204;-85
2023/03/01 06:26:56;;;;;;;46.70;19.70;;;;;;;-145.69;100.00;52590.94;5115066;28;20545;-85
2023/03/01 06:29:23;;;;;;;44.73;18.93;;;;;;;-145.69;100.00;52594.91;5115009;28;20190;-85
2023/03/01 06:31:49;;;;;;;39.70;16.27;;;;;;;-145.69;100.00;52555.28;5115029;28;20232;-86
2023/03/01 06:34:16;;;;;;;36.70;16.07;;;;;;;-145.69;100.00;52602.81;5114865;28;20205;-85
2023/03/01 06:36:43;;;;;;;40.63;17.73;;;;;;;-145.69;100.00;52563.22;5114849;28;20275;-86
2023/03/01 06:39:09;;;;;;;40.67;17.67;;;;;;;-145.69;100.00;52571.13;5114973;28;20202;-85
2023/03/01 06:41:37;;;;;;;36.93;16.20;;;;;;;-145.69;100.00;52555.28;5114453;28;20237;-85
2023/03/01 06:44:04;;;;;;;44.80;18.45;;;;;;;-145.69;100.00;52583.00;5114403;28;20437;-84
2023/03/01 06:46:31;;;;;;;39.37;17.10;;;;;;;-145.69;100.00;52583.00;5114577;28;20201;-84
2023/03/01 06:48:57;;;;;;;39.33;17.13;;;;;;;-145.69;100.00;52604.81;5114519;28;20687;-84
2023/03/01 06:51:25;;;;;;;40.97;17.17;;;;;;;-145.69;100.00;52602.81;5114637;28;20663;-84
2023/03/01 06:53:51;;;;;;;41.27;17.27;;;;;;;-145.69;100.00;52610.75;5114629;28;20204;-84
2023/03/01 06:56:17;;;;;;;35.00;14.93;;;;;;;-145.69;100.00;52571.13;5114550;28;20714;-84
2023/03/01 06:58:45;;;;;;;33.60;14.57;;;;;;;-145.69;100.00;52590.94;5114396;28;20193;-83
2023/03/01 07:01:12;;;;;;;33.20;14.23;;;;;;;-145.69;100.00;52563.22;5114441;28;20197;-83
2023/03/01 07:03:38;;;;;;;32.33;14.13;;;;;;;-145.69;100.00;52594.91;5114409;28;20204;-85
2023/03/01 07:06:05;;;;;;;33.13;13.33;;;;;;;-145.69;100.00;52596.88;5114730;28;20198;-84
2023/03/01 07:08:32;;;;;;;27.83;12.33;;;;;;;-145.69;100.00;52604.81;5114269;28;20194;-83
2023/03/01 07:10:59;;;;;;;27.07;12.80;;;;;;;-145.69;100.00;52567.16;5117443;28;20216;-84
2023/03/01 07:13:26;;;;;;;31.73;12.90;;;;;;;-145.69;100.00;52579.06;5117774;28;20220;-83
2023/03/01 07:15:54;;;;;;;32.70;12.33;;;;;;;-145.69;100.00;52602.81;5118363;28;20197;-83
2023/03/01 07:18:20;;;;;;;26.00;12.13;;;;;;;-145.69;100.00;52571.13;5100325;28;20648;-84
2023/03/01 07:20:47;;;;;;;26.87;11.60;;;;;;;-145.69;100.00;52529.53;5117863;28;20204;-84
2023/03/01 07:23:13;;;;;;;25.10;12.50;;;;;;;-145.69;100.00;52610.75;5114786;28;20197;-83
2023/03/01 07:25:40;;;;;;;27.47;12.20;;;;;;;-145.69;100.00;52575.09;5118140;28;20208;-83
2023/03/01 07:28:06;;;;;;;31.67;12.37;;;;;;;-145.69;100.00;52545.38;5117802;28;20201;-83
2023/03/01 07:30:33;;;;;;;27.23;11.97;;;;;;;-145.69;100.00;52559.25;5117334;28;20197;-84
2023/03/01 07:33:00;;;;;;;33.40;14.33;;;;;;;-145.69;100.00;52604.81;5118331;28;20202;-84
2023/03/01 07:35:28;;;;;;;33.67;14.67;;;;;;;-145.69;100.00;52543.41;5118275;28;20204;-84
2023/03/01 07:37:54;;;;;;;33.47;14.43;;;;;;;-145.69;100.00;52541.44;5117887;28;20228;-83
2023/03/01 07:40:21;;;;;;;32.93;14.63;;;;;;;-145.69;100.00;52618.66;5117930;28;20240;-83
2023/03/01 07:42:47;;;;;;;36.10;14.57;;;;;;;-145.69;100.00;52547.38;5117941;28;20205;-83
2023/03/01 07:45:14;;;;;;;31.23;13.60;;;;;;;-145.69;100.00;52557.28;5117631;28;20202;-83
2023/03/01 07:47:40;;;;;;;29.30;13.60;;;;;;;-145.69;100.00;52585.00;5117380;28;20228;-82
2023/03/01 07:50:10;;;;;;;31.20;15.03;;;;;;;-145.69;100.00;52579.06;5117189;28;20204;-83
2023/03/01 07:52:37;;;;;;;32.27;14.27;;;;;;;-145.69;100.00;52608.75;5117641;28;20199;-83
2023/03/01 07:55:04;;;;;;;33.50;14.67;;;;;;;-145.69;100.00;52575.09;5117758;28;20540;-84
2023/03/01 07:57:31;;;;;;;33.27;14.17;;;;;;;-145.69;100.00;52594.91;5117298;28;20579;-83
2023/03/01 07:59:57;;;;;;;31.33;13.53;;;;;;;-145.69;100.00;52569.16;5117756;28;20252;-83
2023/03/01 08:02:24;;;;;;;31.67;12.60;;;;;;;-145.69;100.00;52579.06;5117177;28;20863;-85
2023/03/01 08:04:50;;;;;;;28.30;12.60;;;;;;;-145.69;100.00;52571.13;5117677;28;20209;-83
2023/03/01 08:07:19;;;;;;;28.43;12.47;;;;;;;-145.69;100.00;52531.53;5117193;28;20201;-82
2023/03/01 08:09:48;;;;;;;30.40;12.70;;;;;;;-145.69;100.00;52559.25;5116757;28;20198;-83
2023/03/01 08:12:16;;;;;;;28.83;13.00;;;;;;;-145.69;100.00;52551.31;5116551;28;20288;-82
2023/03/01 08:14:42;;;;;;;27.80;13.07;;;;;;;-145.69;100.00;52553.31;5117916;28;20198;-82
2023/03/01 08:17:09;;;;;;;24.03;11.43;;;;;;;-145.69;100.00;52563.22;5116904;28;20687;-83
2023/03/01 08:19:35;;;;;;;23.57;11.57;;;;;;;-145.69;100.00;52557.28;5117408;28;20393;-82
2023/03/01 08:22:03;;;;;;;25.67;11.40;;;;;;;-145.69;100.00;52547.38;5116299;28;20198;-82
2023/03/01 08:24:31;;;;;;;28.50;12.73;;;;;;;-145.69;100.00;52585.00;5117023;28;20193;-82
2023/03/01 08:26:59;;;;;;;25.10;11.53;;;;;;;-145.69;100.00;52581.03;5117642;28;20597;-82
2023/03/01 08:29:25;;;;;;;26.97;11.97;;;;;;;-145.69;100.00;52583.00;5117674;28;20288;-82
2023/03/01 08:31:52;;;;;;;25.27;11.67;;;;;;;-145.69;100.00;52590.94;5117864;28;20198;-82
2023/03/01 08:34:19;;;;;;;25.07;11.60;;;;;;;-145.69;100.00;52586.97;5117724;28;20654;-82
2023/03/01 08:36:47;;;;;;;26.97;12.07;;;;;;;-145.69;100.00;52588.97;5117579;28;20777;-82
2023/03/01 08:39:15;;;;;;;23.70;11.83;;;;;;;-145.69;100.00;52563.22;5118083;28;20198;-82
2023/03/01 08:41:43;;;;;;;27.53;11.73;;;;;;;-145.69;100.00;52561.22;5118335;28;20231;-82
2023/03/01 08:44:11;;;;;;;24.03;11.40;;;;;;;-145.69;100.00;52559.25;5120297;28;20201;-82
2023/03/01 08:46:42;;;;;;;28.07;12.23;;;;;;;-145.69;100.00;52537.47;5114628;28;20197;-83
2023/03/01 08:49:17;;;;;;;25.10;10.97;;;;;;;-145.69;100.00;52569.16;5115588;28;20549;-82
2023/03/01 08:51:44;;;;;;;27.17;11.70;;;;;;;-145.69;100.00;52571.13;5118333;28;20564;-81
2023/03/01 08:54:13;;;;;;;26.70;11.53;;;;;;;-145.69;100.00;52543.41;5118079;28;20201;-81
2023/03/01 08:56:39;;;;;;;22.23;11.00;;;;;;;-145.69;100.00;52539.44;5116920;27;20239;-80
2023/03/01 08:59:08;;;;;;;23.33;11.60;;;;;;;-145.69;100.00;52563.22;5116865;28;20944;-82
2023/03/01 09:01:34;;;;;;;25.33;12.27;;;;;;;-145.69;100.00;52555.28;5112066;28;20197;-81
2023/03/01 09:04:01;;;;;;;26.93;12.30;;;;;;;-145.69;100.00;52557.28;5115311;28;20190;-80
2023/03/01 09:06:30;;;;;;;26.10;12.43;;;;;;;-145.69;100.00;52559.25;5132102;27;20199;-80
2023/03/01 09:09:00;;;;;;;25.43;12.80;;;;;;;-145.69;100.00;52567.16;5136190;27;20211;-81
2023/03/01 09:11:27;;;;;;;26.97;12.37;;;;;;;-145.69;100.00;52539.44;5136346;27;20219;-80
2023/03/01 09:13:53;;;;;;;25.33;12.30;;;;;;;-145.69;100.00;52586.97;5124086;27;20206;-79
2023/03/01 09:16:23;;;;;;;28.67;13.00;;;;;;;-145.69;100.00;52543.41;5105294;28;20667;-83
2023/03/01 09:18:51;;;;;;;26.23;11.93;;;;;;;-145.69;100.00;52555.28;5105456;28;20572;-81
2023/03/01 09:21:20;;;;;;;26.17;12.23;;;;;;;-145.69;100.00;52565.19;5117178;28;20563;-82
2023/03/01 09:23:48;;;;;;;28.47;12.73;;;;;;;-145.69;100.00;52559.25;5117584;28;20201;-81
2023/03/01 09:26:18;;;;;;;27.03;12.70;;;;;;;-145.69;100.00;52571.13;5117543;28;20201;-81
2023/03/01 09:28:46;;;;;;;28.97;13.37;;;;;;;-145.69;100.00;52543.41;5117498;28;20205;-80
2023/03/01 09:31:14;;;;;;;29.43;12.87;;;;;;;-145.69;100.00;52557.28;5114879;28;20200;-81
2023/03/01 09:33:43;;;;;;;31.13;13.10;;;;;;;-145.69;100.00;52543.41;5112638;28;20190;-81
2023/03/01 09:36:14;;;;;;;26.07;12.13;;;;;;;-145.69;100.00;52583.00;5107205;28;20193;-81
2023/03/01 09:38:40;;;;;;;29.43;12.50;;;;;;;-145.69;100.00;52581.03;5114482;28;20221;-81
2023/03/01 09:41:20;;;;;;;26.30;11.83;;;;;;;-145.69;100.00;52559.25;5115112;28;20236;-82
2023/03/01 09:43:53;;;;;;;26.47;13.00;;;;;;;-145.69;100.00;52565.19;5114968;28;20269;-81
2023/03/01 09:46:22;;;;;;;26.07;11.80;;;;;;;-145.69;100.00;52547.38;5114159;27;20200;-80
2023/03/01 09:48:56;;;;;;;27.37;12.67;;;;;;;-145.69;100.00;52559.25;5114468;28;20205;-80
2023/03/01 09:51:30;;;;;;;24.27;12.37;;;;;;;-145.69;100.00;52539.44;5114285;28;20289;-80
2023/03/01 09:53:58;;;;;;;25.83;12.20;;;;;;;-145.69;100.00;52549.34;5114252;28;20646;-81
2023/03/01 09:56:30;;;;;;;26.37;13.07;;;;;;;-145.69;100.00;52541.44;5114540;27;20229;-79
2023/03/01 09:59:08;;;;;;;27.13;12.73;;;;;;;-145.69;100.00;52539.44;5114353;28;20687;-82
2023/03/01 10:01:39;;;;;;;24.10;12.77;;;;;;;-145.69;100.00;52519.63;5114571;28;20284;-82
2023/03/01 10:04:38;;;;;;;30.77;13.03;;;;;;;-145.69;100.00;52569.16;5114650;28;20896;-83
2023/03/01 10:07:21;;;;;;;29.77;13.10;;;;;;;-145.69;100.00;52559.25;5114032;28;20208;-81
2023/03/01 10:09:49;;;;;;;26.00;12.37;;;;;;;-145.69;100.00;52539.44;5094555;28;20204;-81
2023/03/01 10:12:19;;;;;;;25.63;12.47;;;;;;;-145.69;100.00;52590.94;5093644;28;20657;-82
2023/03/01 10:14:54;;;;;;;25.80;12.20;;;;;;;-145.69;100.00;52549.34;5094243;28;20212;-82
2023/03/01 10:17:28;;;;;;;24.67;11.40;;;;;;;-145.69;100.00;52529.53;5113883;28;20216;-82
2023/03/01 10:20:08;;;;;;;22.77;11.60;;;;;;;-145.69;100.00;52511.72;5115056;28;20208;-81
2023/03/01 10:22:35;;;;;;;29.50;12.13;;;;;;;-145.69;94.60;52523.59;5095800;28;20231;-82
2023/03/01 10:25:04;;;;;;;33.27;13.03;;;;;;;-145.69;96.73;52551.31;5113382;28;20246;-80
2023/03/01 10:27:40;;;;;;;29.07;13.00;;;;;;;-145.69;100.00;52523.59;5093546;28;20231;-81
2023/03/01 10:30:17;;;;;;;32.87;13.40;;;;;;;-145.69;99.54;52565.19;5094592;28;20559;-81
2023/03/01 10:32:44;;;;;;;29.47;13.27;;;;;;;-145.69;100.00;52539.44;5114875;28;20193;-83
2023/03/01 10:35:32;;;;;;;29.90;12.83;;;;;;;-145.69;98.17;52507.75;5114303;28;20200;-80
2023/03/01 10:38:04;;;;;;;28.93;13.03;;;;;;;-145.69;100.00;52539.44;5094303;28;20315;-82
2023/03/01 10:40:30;;;;;;;27.60;12.27;;;;;;;-145.69;96.66;52535.47;5093672;28;20234;-83
2023/03/01 10:43:00;;;;;;;24.80;12.37;;;;;;;-145.69;96.29;52523.59;5094245;28;20202;-84
2023/03/01 10:45:34;;;;;;;29.13;12.47;;;;;;;-145.69;97.18;52531.53;5095444;28;20316;-84
2023/03/01 10:48:13;;;;;;;23.50;11.63;;;;;;;-145.69;95.83;52551.31;5114892;28;20223;-84
2023/03/01 10:50:42;;;;;;;27.30;11.83;;;;;;;-145.69;94.45;52491.91;5114702;28;20234;-85
2023/03/01 10:53:23;;;;;;;27.83;12.57;;;;;;;-145.69;93.29;52535.47;5114903;28;20201;-83
2023/03/01 10:56:01;;;;;;;24.27;12.67;;;;;;;-145.69;98.21;52499.84;5120572;27;20197;-86
2023/03/01 10:58:29;;;;;;;23.43;12.33;;;;;;;-145.69;96.89;52539.44;5135342;27;20220;-84
2023/03/01 11:00:58;;;;;;;27.33;12.50;;;;;;;-145.69;99.29;52527.56;5135936;27;20192;-81